createdAt,value
2023-02-11T00:01:59.474Z,1024.2
2023-02-11T00:07:05.488Z,1024.1
2023-02-11T00:12:11.573Z,1024
2023-02-11T00:17:17.575Z,1024
2023-02-11T00:22:23.684Z,1024
2023-02-11T00:27:29.729Z,1024
2023-02-11T00:32:35.847Z,1023.8
2023-02-11T00:37:42.127Z,1023.8
2023-02-11T00:42:47.876Z,1023.7
2023-02-11T00:47:53.914Z,1023.7
2023-02-11T00:52:59.951Z,1023.7
2023-02-11T00:58:06.058Z,1023.7
2023-02-11T01:03:12.423Z,1023.8
2023-02-11T01:08:18.124Z,1023.8
2023-02-11T01:13:24.207Z,1023.7
2023-02-11T01:18:30.216Z,1023.6
2023-02-11T01:23:36.278Z,1023.6
2023-02-11T01:28:42.343Z,1023.6
2023-02-11T01:33:48.388Z,1023.8
2023-02-11T01:38:54.511Z,1023.9
2023-02-11T01:44:00.573Z,1023.9
2023-02-11T01:49:06.740Z,1023.9
2023-02-11T01:54:12.594Z,1023.8
2023-02-11T01:59:18.694Z,1023.8
2023-02-11T02:04:24.715Z,1023.8
2023-02-11T02:09:30.770Z,1023.8
2023-02-11T02:14:36.837Z,1023.8
2023-02-11T02:19:42.859Z,1023.7
2023-02-11T02:24:48.928Z,1023.7
2023-02-11T02:29:55.008Z,1023.7
2023-02-11T02:35:01.040Z,1023.5
2023-02-11T02:40:07.076Z,1023.4
2023-02-11T02:45:13.168Z,1023.4
2023-02-11T02:50:19.195Z,1023.3
2023-02-11T02:55:25.221Z,1023.4
2023-02-11T03:00:31.358Z,1023.4
2023-02-11T03:05:37.353Z,1023.4
2023-02-11T03:10:43.394Z,1023.4
2023-02-11T03:15:50.071Z,1023.2
2023-02-11T03:20:55.507Z,1023.4
2023-02-11T03:26:01.603Z,1023.2
2023-02-11T03:31:07.809Z,1023
2023-02-11T03:36:13.668Z,1023
2023-02-11T03:41:19.753Z,1023.1
2023-02-11T03:46:25.798Z,1023.2
2023-02-11T03:56:39.740Z,1023.2
2023-02-11T04:01:45.852Z,1023.2
2023-02-11T04:06:51.865Z,1023.1
2023-02-11T04:11:57.920Z,1023.1
2023-02-11T04:17:03.977Z,1023.1
2023-02-11T04:22:10.019Z,1023
2023-02-11T04:27:16.059Z,1023
2023-02-11T04:32:22.148Z,1023
2023-02-11T04:37:28.176Z,1022.9
2023-02-11T04:42:34.248Z,1022.9
2023-02-11T04:47:40.301Z,1022.9
2023-02-11T04:52:46.337Z,1023
2023-02-11T04:57:52.387Z,1023
2023-02-11T05:02:58.468Z,1023
2023-02-11T05:08:04.506Z,1023
2023-02-11T05:13:10.537Z,1023
2023-02-11T05:18:16.627Z,1023
2023-02-11T05:23:22.766Z,1023
2023-02-11T05:28:28.766Z,1023
2023-02-11T05:33:34.779Z,1022.9
2023-02-11T05:38:40.831Z,1022.9
2023-02-11T05:43:46.873Z,1022.9
2023-02-11T05:48:53.075Z,1022.8
2023-02-11T05:53:58.971Z,1022.8
2023-02-11T05:59:05.017Z,1022.8
2023-02-11T06:04:11.151Z,1022.7
2023-02-11T06:09:17.120Z,1022.7
2023-02-11T06:14:23.196Z,1022.8
2023-02-11T06:19:29.315Z,1022.9
2023-02-11T06:24:58.624Z,1022.8
2023-02-11T06:29:41.341Z,1022.7
2023-02-11T06:34:47.417Z,1022.8
2023-02-11T06:39:53.514Z,1022.9
2023-02-11T06:44:59.539Z,1023
2023-02-11T06:50:05.572Z,1023
2023-02-11T06:55:11.629Z,1023
2023-02-11T07:00:17.669Z,1023
2023-02-11T07:05:23.739Z,1023
2023-02-11T07:10:29.781Z,1023
2023-02-11T07:15:35.822Z,1023
2023-02-11T07:20:41.901Z,1023
2023-02-11T07:25:48.185Z,1023.2
2023-02-11T07:30:54.020Z,1023.2
2023-02-11T07:36:00.111Z,1023.2
2023-02-11T07:41:06.106Z,1023.2
2023-02-11T07:46:12.146Z,1023.2
2023-02-11T07:51:18.229Z,1023.4
2023-02-11T07:56:25.493Z,1023.4
2023-02-11T08:01:30.288Z,1023.5
2023-02-11T08:06:36.396Z,1023.5
2023-02-11T08:11:42.413Z,1023.5
2023-02-11T08:16:48.556Z,1023.5
2023-02-11T08:21:54.555Z,1023.5
2023-02-11T08:27:00.581Z,1023.4
2023-02-11T08:32:06.650Z,1023.5
2023-02-11T08:37:12.709Z,1023.5
2023-02-11T08:42:18.740Z,1023.5
2023-02-11T08:47:24.785Z,1023.5
2023-02-11T08:52:30.860Z,1023.7
2023-02-11T08:57:36.879Z,1023.7
2023-02-11T09:02:43.067Z,1023.8
2023-02-11T09:07:48.997Z,1023.8
2023-02-11T09:12:55.051Z,1023.9
2023-02-11T09:18:01.087Z,1023.9
2023-02-11T09:23:07.179Z,1024.1
2023-02-11T09:28:13.279Z,1024
2023-02-11T09:33:19.285Z,1024.1
2023-02-11T09:38:25.345Z,1024.1
2023-02-11T09:43:31.376Z,1024.1
2023-02-11T09:48:37.418Z,1024.1
2023-02-11T09:53:43.526Z,1024.2
2023-02-11T09:58:49.520Z,1024.2
2023-02-11T10:03:55.655Z,1024.3
2023-02-11T10:09:01.663Z,1024.4
2023-02-11T10:14:07.740Z,1024.4
2023-02-11T10:19:13.755Z,1024.4
2023-02-11T10:24:19.820Z,1024.4
2023-02-11T10:29:25.852Z,1024.4
2023-02-11T10:34:31.894Z,1024.4
2023-02-11T10:39:37.977Z,1024.4
2023-02-11T10:44:44.022Z,1024.4
2023-02-11T10:49:50.072Z,1024.4
2023-02-11T10:54:56.162Z,1024.4
2023-02-11T11:00:02.888Z,1024.4
2023-02-11T11:05:08.279Z,1024.5
2023-02-11T11:10:14.303Z,1024.5
2023-02-11T11:15:20.322Z,1024.5
2023-02-11T11:20:26.390Z,1024.4
2023-02-11T11:25:32.458Z,1024.4
2023-02-11T11:30:38.554Z,1024.4
2023-02-11T11:35:44.529Z,1024.4
2023-02-11T11:40:50.944Z,1024.4
2023-02-11T11:45:56.652Z,1024.4
2023-02-11T11:51:02.707Z,1024.4
2023-02-11T11:56:08.775Z,1024.4
2023-02-11T12:01:14.798Z,1024.4
2023-02-11T12:06:20.866Z,1024.4
2023-02-11T12:11:26.975Z,1024.3
2023-02-11T12:16:33.037Z,1024.3
2023-02-11T12:21:39.025Z,1024.3
2023-02-11T12:26:45.105Z,1024.3
2023-02-11T12:31:51.200Z,1024.3
2023-02-11T12:36:57.192Z,1024.2
2023-02-11T12:42:03.273Z,1024.2
2023-02-11T12:47:09.505Z,1024.3
2023-02-11T12:52:15.346Z,1024.3
2023-02-11T12:57:21.406Z,1024.2
2023-02-11T13:02:27.593Z,1024.2
2023-02-11T13:07:33.515Z,1024.2
2023-02-11T13:12:39.589Z,1024.2
2023-02-11T13:17:45.624Z,1024.1
2023-02-11T13:22:51.676Z,1024.1
2023-02-11T13:27:57.830Z,1024
2023-02-11T13:33:03.780Z,1024.1
2023-02-11T13:38:10.200Z,1024.2
2023-02-11T13:43:15.906Z,1024.1
2023-02-11T13:48:21.933Z,1024.1
2023-02-11T13:53:27.988Z,1024.1
2023-02-11T13:58:34.124Z,1024.1
2023-02-11T14:03:40.490Z,1024.2
2023-02-11T14:08:46.144Z,1024.2
2023-02-11T14:13:52.219Z,1024.2
2023-02-11T14:18:58.258Z,1024.2
2023-02-11T14:24:04.305Z,1024.1
2023-02-11T14:29:10.403Z,1024.1
2023-02-11T14:34:16.418Z,1024.1
2023-02-11T14:39:22.470Z,1024.1
2023-02-11T14:44:28.544Z,1024.2
2023-02-11T14:49:34.588Z,1024.2
2023-02-11T14:54:40.693Z,1024.2
2023-02-11T14:59:46.727Z,1024.3
2023-02-11T15:04:52.733Z,1024.3
2023-02-11T15:09:58.787Z,1024.3
2023-02-11T15:15:04.859Z,1024.2
2023-02-11T15:20:10.882Z,1024.3
2023-02-11T15:25:16.959Z,1024.3
2023-02-11T15:30:23.015Z,1024.4
2023-02-11T15:35:29.067Z,1024.5
2023-02-11T15:40:35.105Z,1024.5
2023-02-11T15:45:41.276Z,1024.5
2023-02-11T15:50:47.219Z,1024.5
2023-02-11T15:55:53.268Z,1024.5
2023-02-11T16:00:59.345Z,1024.5
2023-02-11T16:06:05.389Z,1024.5
2023-02-11T16:11:11.421Z,1024.5
2023-02-11T16:16:17.556Z,1024.5
2023-02-11T16:21:24.661Z,1024.6
2023-02-11T16:26:30.692Z,1024.7
2023-02-11T16:31:36.892Z,1024.7
2023-02-11T16:36:42.834Z,1024.6
2023-02-11T16:41:48.873Z,1024.7
2023-02-11T16:46:55.003Z,1024.7
2023-02-11T16:52:00.964Z,1024.9
2023-02-11T16:57:07.044Z,1024.9
2023-02-11T17:02:13.128Z,1024.9
2023-02-11T17:07:19.138Z,1024.9
2023-02-11T17:12:25.205Z,1024.9
2023-02-11T17:17:31.265Z,1025
2023-02-11T17:22:37.293Z,1025.1
2023-02-11T17:27:43.349Z,1025.1
2023-02-11T17:32:50.030Z,1025.1
2023-02-11T17:37:55.474Z,1025.1
2023-02-11T17:43:01.490Z,1025.1
2023-02-11T17:48:07.574Z,1025.1
2023-02-11T17:53:13.631Z,1025.2
2023-02-11T17:58:19.694Z,1025.3
2023-02-11T18:03:25.742Z,1025.4
2023-02-11T18:08:31.794Z,1025.4
2023-02-11T18:13:37.832Z,1025.4
2023-02-11T18:18:43.902Z,1025.4
2023-02-11T18:23:49.946Z,1025.5
2023-02-11T18:28:55.987Z,1025.5
2023-02-11T18:34:02.074Z,1025.5
2023-02-11T18:39:08.102Z,1025.6
2023-02-11T18:44:14.184Z,1025.6
2023-02-11T18:49:20.232Z,1025.6
2023-02-11T18:54:26.250Z,1025.6
2023-02-11T18:59:32.310Z,1025.6
2023-02-11T19:04:38.493Z,1025.5
2023-02-11T19:09:44.418Z,1025.6
2023-02-11T19:14:50.467Z,1025.8
2023-02-11T19:19:56.537Z,1025.8
2023-02-11T19:25:02.581Z,1025.9
2023-02-11T19:30:08.644Z,1025.9
2023-02-11T19:35:14.708Z,1025.9
2023-02-11T19:40:20.725Z,1025.8
2023-02-11T19:45:26.796Z,1025.8
2023-02-11T19:50:32.879Z,1025.8
2023-02-11T19:55:38.898Z,1026
2023-02-11T20:00:44.954Z,1026.1
2023-02-11T20:05:51.404Z,1026.1
2023-02-11T20:10:57.072Z,1026.1
2023-02-11T20:16:03.171Z,1026.1
2023-02-11T20:21:09.189Z,1026.1
2023-02-11T20:26:15.222Z,1026.1
2023-02-11T20:31:21.419Z,1026.1
2023-02-11T20:36:27.369Z,1026.2
2023-02-11T20:41:33.384Z,1026.2
2023-02-11T20:46:39.435Z,1026.3
2023-02-11T20:51:45.498Z,1026.4
2023-02-11T20:56:51.534Z,1026.4
2023-02-11T21:01:57.759Z,1026.4
2023-02-11T21:07:03.828Z,1026.5
2023-02-11T21:12:09.720Z,1026.5
2023-02-11T21:17:15.748Z,1026.5
2023-02-11T21:22:21.838Z,1026.4
2023-02-11T21:27:27.871Z,1026.6
2023-02-11T21:32:33.931Z,1026.6
2023-02-11T21:37:39.986Z,1026.6
2023-02-11T21:42:46.016Z,1026.6
2023-02-11T21:47:52.087Z,1026.7
2023-02-11T21:52:58.165Z,1026.7
2023-02-11T21:58:04.203Z,1026.7
2023-02-11T22:03:10.306Z,1026.7
2023-02-11T22:08:18.600Z,1026.7
2023-02-11T22:13:22.348Z,1026.7
2023-02-11T22:18:28.386Z,1026.7
2023-02-11T22:23:34.478Z,1026.6
2023-02-11T22:28:40.499Z,1026.7
2023-02-11T22:33:46.565Z,1026.7
2023-02-11T22:38:52.650Z,1026.6
2023-02-11T22:43:58.655Z,1026.6
2023-02-11T22:49:04.718Z,1026.7
2023-02-11T22:54:10.774Z,1026.7
2023-02-11T22:59:16.828Z,1026.8
2023-02-11T23:04:22.867Z,1026.8
2023-02-11T23:09:28.957Z,1027
2023-02-11T23:14:34.981Z,1027
2023-02-11T23:19:41.031Z,1027
2023-02-11T23:24:47.116Z,1026.9
2023-02-11T23:29:53.133Z,1027
2023-02-11T23:34:59.174Z,1027
2023-02-11T23:40:05.292Z,1027
2023-02-11T23:45:11.304Z,1027.1
2023-02-11T23:50:17.368Z,1027.1
2023-02-11T23:55:23.428Z,1027.1
